Weather at Adisutjipto International Airport

Public forecast

Using degrees Celsius for public forecast. Weather courtesy of forecast.io.

Current aviation weather report (METAR) for Adisutjipto International Airport

Retrieved UTC (0 seconds ago):

Closest aviation forecast (TAF) to Adisutjipto International Airport

Forecast is more than 12 hours old.

Retrieved 2017/06/11 00:00 UTC (3 years ago):

TAF WAHH 102300Z 1100/1124 11008KT 8000 SCT018 BECMG 1112/1114 00000KT 6000 FEW020